createdAt,value
2022-11-16T00:01:43.502Z,93117.84
2022-11-16T00:04:12.068Z,93137.34
2022-11-16T00:06:39.100Z,93132.66
2022-11-16T00:09:24.022Z,93128.97
2022-11-16T00:11:53.123Z,93137.09
2022-11-16T00:14:21.264Z,93134.72
2022-11-16T00:16:48.052Z,93117.00
2022-11-16T00:19:14.701Z,93122.69
2022-11-16T00:21:41.561Z,93118.53
2022-11-16T00:24:12.044Z,93116.06
2022-11-16T00:26:38.710Z,93109.19
2022-11-16T00:29:05.423Z,93109.84
2022-11-16T00:31:32.064Z,93107.31
2022-11-16T00:33:58.651Z,93101.31
2022-11-16T00:36:25.348Z,93100.53
2022-11-16T00:38:53.867Z,93095.59
2022-11-16T00:41:20.600Z,93094.53
2022-11-16T00:43:47.201Z,93096.72
2022-11-16T00:46:13.938Z,93091.38
2022-11-16T00:48:40.669Z,93097.69
2022-11-16T00:51:07.458Z,93097.88
2022-11-16T00:53:35.653Z,93089.50
2022-11-16T00:56:02.288Z,93093.13
2022-11-16T00:58:28.929Z,93091.59
2022-11-16T01:00:55.643Z,93092.44
2022-11-16T01:03:22.343Z,93090.94
2022-11-16T01:05:49.057Z,93075.19
2022-11-16T01:08:15.746Z,93087.13
2022-11-16T01:10:42.516Z,93075.31
2022-11-16T01:13:10.822Z,93070.00
2022-11-16T01:15:37.503Z,93057.44
2022-11-16T01:18:04.302Z,93065.94
2022-11-16T01:20:31.005Z,93072.53
2022-11-16T01:22:57.743Z,93064.50
2022-11-16T01:25:24.563Z,93062.56
2022-11-16T01:27:51.333Z,93060.56
2022-11-16T01:30:18.250Z,93056.94
2022-11-16T01:32:45.012Z,93057.06
2022-11-16T01:35:16.824Z,93034.56
2022-11-16T01:37:43.672Z,93044.19
2022-11-16T01:40:11.823Z,93054.28
2022-11-16T01:42:38.579Z,93051.81
2022-11-16T01:45:23.557Z,93053.03
2022-11-16T01:47:51.243Z,93048.63
2022-11-16T01:50:18.615Z,93045.72
2022-11-16T01:52:50.334Z,93046.06
2022-11-16T01:55:17.210Z,93043.19
2022-11-16T01:57:45.843Z,93038.66
2022-11-16T02:00:13.860Z,93024.88
2022-11-16T02:02:41.583Z,93022.91
2022-11-16T02:05:08.663Z,93022.91
2022-11-16T02:08:22.991Z,93021.31
2022-11-16T02:11:10.862Z,93014.97
2022-11-16T02:13:57.711Z,93013.38
2022-11-16T02:16:39.219Z,93000.72
2022-11-16T02:19:50.963Z,93009.69
2022-11-16T02:22:42.399Z,93008.09
2022-11-16T02:25:39.892Z,93002.09
2022-11-16T02:28:09.448Z,92999.84
2022-11-16T02:30:37.085Z,92989.63
2022-11-16T02:33:12.792Z,92982.91
2022-11-16T02:35:43.954Z,92977.28
2022-11-16T02:38:19.748Z,92976.84
2022-11-16T02:40:53.082Z,92982.13
2022-11-16T02:43:26.563Z,92976.16
2022-11-16T02:45:56.392Z,92974.09
2022-11-16T02:48:28.534Z,92974.81
2022-11-16T02:50:56.329Z,92970.38
2022-11-16T02:53:25.261Z,92965.72
2022-11-16T02:55:52.190Z,92946.59
2022-11-16T02:58:21.959Z,92951.72
2022-11-16T03:00:59.690Z,92931.22
2022-11-16T03:03:55.348Z,92944.06
2022-11-16T03:06:29.437Z,92944.56
2022-11-16T03:09:09.155Z,92951.44
2022-11-16T03:11:58.369Z,92951.06
2022-11-16T03:14:27.471Z,92945.03
2022-11-16T03:16:57.081Z,92955.00
2022-11-16T03:19:34.191Z,92966.69
2022-11-16T03:22:23.372Z,92957.63
2022-11-16T03:24:50.806Z,92963.34
2022-11-16T03:27:39.571Z,92968.63
2022-11-16T03:30:10.833Z,92975.84
2022-11-16T03:32:52.191Z,92984.13
2022-11-16T03:35:22.513Z,92981.84
2022-11-16T03:37:50.956Z,92977.53
2022-11-16T03:40:18.791Z,92979.28
2022-11-16T03:42:46.431Z,92969.94
2022-11-16T03:45:13.750Z,92969.94
2022-11-16T03:47:42.002Z,92959.91
2022-11-16T03:50:09.892Z,92960.72
2022-11-16T03:52:36.575Z,92952.56
2022-11-16T03:55:03.784Z,92957.25
2022-11-16T03:57:30.522Z,92953.06
2022-11-16T03:59:57.251Z,92960.13
2022-11-16T04:02:23.910Z,92958.63
2022-11-16T04:05:09.133Z,92957.06
2022-11-16T04:07:54.232Z,92953.25
2022-11-16T04:10:39.492Z,92944.59
2022-11-16T04:13:28.350Z,92932.84
2022-11-16T04:16:13.509Z,92927.31
2022-11-16T04:18:59.102Z,92926.16
2022-11-16T04:21:46.513Z,92927.00
2022-11-16T04:24:16.454Z,92915.28
2022-11-16T04:27:04.641Z,92909.72
2022-11-16T04:29:31.595Z,92912.28
2022-11-16T04:32:16.862Z,92898.75
2022-11-16T04:35:01.959Z,92882.44
2022-11-16T04:37:47.210Z,92879.09
2022-11-16T04:40:15.002Z,92878.94
2022-11-16T04:42:41.737Z,92866.16
2022-11-16T04:45:27.444Z,92865.59
2022-11-16T04:47:54.569Z,92862.63
2022-11-16T04:50:21.499Z,92855.78
2022-11-16T04:52:49.602Z,92853.03
2022-11-16T04:55:16.494Z,92857.94
2022-11-16T04:57:43.194Z,92852.84
2022-11-16T05:00:10.647Z,92851.66
2022-11-16T05:02:37.502Z,92852.06
2022-11-16T05:05:04.419Z,92837.09
2022-11-16T05:07:31.215Z,92841.81
2022-11-16T05:09:57.904Z,92835.91
2022-11-16T05:12:26.593Z,92842.63
2022-11-16T05:14:55.032Z,92841.03
2022-11-16T05:17:23.085Z,92833.94
2022-11-16T05:20:12.584Z,92841.81
2022-11-16T05:22:39.451Z,92838.47
2022-11-16T05:25:07.644Z,92843.41
2022-11-16T05:27:34.235Z,92845.97
2022-11-16T05:30:00.867Z,92841.63
2022-11-16T05:32:28.079Z,92847.72
2022-11-16T05:34:54.771Z,92843.00
2022-11-16T05:37:21.439Z,92849.91
2022-11-16T05:39:48.403Z,92849.31
2022-11-16T05:42:15.212Z,92838.84
2022-11-16T05:44:41.869Z,92855.19
2022-11-16T05:47:08.502Z,92859.13
2022-11-16T05:49:35.213Z,92849.28
2022-11-16T05:52:01.965Z,92859.91
2022-11-16T05:54:28.674Z,92858.13
2022-11-16T05:56:55.378Z,92849.50
2022-11-16T05:59:22.850Z,92847.34
2022-11-16T06:01:50.443Z,92859.94
2022-11-16T06:06:57.866Z,92856.38
2022-11-16T06:09:24.714Z,92845.94
2022-11-16T06:11:51.604Z,92852.25
2022-11-16T06:14:18.302Z,92860.28
2022-11-16T06:16:45.014Z,92852.41
2022-11-16T06:19:11.854Z,92850.03
2022-11-16T06:21:38.575Z,92854.97
2022-11-16T06:24:09.230Z,92858.50
2022-11-16T06:26:37.172Z,92852.59
2022-11-16T06:29:04.391Z,92860.69
2022-11-16T06:31:31.364Z,92860.28
2022-11-16T06:33:58.059Z,92870.69
2022-11-16T06:36:24.892Z,92875.63
2022-11-16T06:38:51.613Z,92871.72
2022-11-16T06:41:18.437Z,92866.44
2022-11-16T06:43:45.365Z,92877.25
2022-11-16T06:46:12.252Z,92879.06
2022-11-16T06:48:39.044Z,92876.84
2022-11-16T06:51:05.972Z,92870.59
2022-11-16T06:53:32.716Z,92874.13
2022-11-16T06:56:04.498Z,92879.22
2022-11-16T06:58:32.324Z,92869.41
2022-11-16T07:01:08.914Z,92876.09
2022-11-16T07:03:35.652Z,92866.63
2022-11-16T07:06:08.016Z,92875.91
2022-11-16T07:08:35.073Z,92876.13
2022-11-16T07:11:04.407Z,92881.59
2022-11-16T07:13:32.955Z,92879.44
2022-11-16T07:16:10.254Z,92888.72
2022-11-16T07:18:39.217Z,92883.97
2022-11-16T07:21:11.162Z,92880.63
2022-11-16T07:23:38.008Z,92877.06
2022-11-16T07:26:06.377Z,92882.19
2022-11-16T07:28:33.604Z,92884.78
2022-11-16T07:31:07.245Z,92884.56
2022-11-16T07:33:34.277Z,92884.97
2022-11-16T07:36:05.982Z,92879.44
2022-11-16T07:38:33.588Z,92874.72
2022-11-16T07:41:04.851Z,92885.34
2022-11-16T07:43:32.725Z,92861.91
2022-11-16T07:46:45.455Z,92880.22
2022-11-16T07:49:11.177Z,92887.13
2022-11-16T07:51:38.538Z,92882.59
2022-11-16T07:54:06.726Z,92884.72
2022-11-16T07:56:33.563Z,92886.25
2022-11-16T07:59:00.689Z,92884.50
2022-11-16T08:01:27.555Z,92886.09
2022-11-16T08:03:54.462Z,92886.22
2022-11-16T08:06:24.412Z,92890.34
2022-11-16T08:08:56.670Z,92886.78
2022-11-16T08:11:25.055Z,92884.38
2022-11-16T08:13:51.802Z,92890.88
2022-11-16T08:16:21.354Z,92892.47
2022-11-16T08:18:48.297Z,92880.72
2022-11-16T08:21:16.712Z,92889.53
2022-11-16T08:23:45.153Z,92895.75
2022-11-16T08:26:16.809Z,92902.94
2022-11-16T08:28:45.164Z,92911.03
2022-11-16T08:31:19.084Z,92901.50
2022-11-16T08:33:45.753Z,92908.41
2022-11-16T08:36:17.317Z,92913.31
2022-11-16T08:38:45.023Z,92908.19
2022-11-16T08:41:12.104Z,92907.00
2022-11-16T08:43:40.562Z,92893.09
2022-11-16T08:46:09.093Z,92912.81
2022-11-16T08:48:36.836Z,92899.88
2022-11-16T08:51:21.337Z,92922.50
2022-11-16T08:53:49.536Z,92925.22
2022-11-16T08:56:18.626Z,92916.16
2022-11-16T08:58:51.470Z,92919.81
2022-11-16T09:01:24.721Z,92922.94
2022-11-16T09:03:52.861Z,92918.53
2022-11-16T09:06:19.875Z,92915.88
2022-11-16T09:08:47.226Z,92917.22
2022-11-16T09:11:17.412Z,92919.44
2022-11-16T09:13:45.124Z,92924.16
2022-11-16T09:16:12.043Z,92913.31
2022-11-16T09:18:38.914Z,92917.84
2022-11-16T09:21:05.703Z,92913.66
2022-11-16T09:23:32.352Z,92916.81
2022-11-16T09:26:03.914Z,92913.38
2022-11-16T09:28:31.130Z,92923.44
2022-11-16T09:31:02.912Z,92918.66
2022-11-16T09:33:30.909Z,92926.09
2022-11-16T09:36:02.183Z,92919.03
2022-11-16T09:38:40.570Z,92923.06
2022-11-16T09:41:15.764Z,92925.16
2022-11-16T09:43:53.732Z,92930.78
2022-11-16T09:46:53.693Z,92924.53
2022-11-16T09:49:24.285Z,92928.75
2022-11-16T09:51:54.159Z,92927.63
2022-11-16T09:54:34.325Z,92924.28
2022-11-16T09:57:07.982Z,92931.00
2022-11-16T09:59:41.681Z,92922.00
2022-11-16T10:02:27.459Z,92920.47
2022-11-16T10:05:00.543Z,92931.81
2022-11-16T10:07:32.153Z,92923.13
2022-11-16T10:09:58.911Z,92918.41
2022-11-16T10:12:43.909Z,92920.75
2022-11-16T10:15:23.628Z,92922.63
2022-11-16T10:18:03.730Z,92920.34
2022-11-16T10:20:36.104Z,92922.69
2022-11-16T10:23:37.483Z,92913.78
2022-11-16T10:26:12.581Z,92905.56
2022-11-16T10:29:02.083Z,92902.06
2022-11-16T10:32:28.982Z,92900.38
2022-11-16T10:35:00.652Z,92904.63
2022-11-16T10:37:36.856Z,92898.66
2022-11-16T10:40:16.031Z,92900.38
2022-11-16T10:42:44.644Z,92896.81
2022-11-16T10:45:11.526Z,92898.88
2022-11-16T10:47:46.812Z,92893.16
2022-11-16T10:50:37.985Z,92894.50
2022-11-16T10:53:04.890Z,92896.44
2022-11-16T10:55:31.745Z,92891.94
2022-11-16T10:58:01.346Z,92896.66
2022-11-16T11:00:38.819Z,92901.66
2022-11-16T11:03:05.978Z,92898.66
2022-11-16T11:05:34.832Z,92893.09
2022-11-16T11:08:01.967Z,92890.78
2022-11-16T11:10:30.373Z,92886.34
2022-11-16T11:13:06.330Z,92894.63
2022-11-16T11:15:33.332Z,92891.06
2022-11-16T11:18:23.924Z,92882.34
2022-11-16T11:21:13.782Z,92885.03
2022-11-16T11:24:37.356Z,92887.31
2022-11-16T11:26:55.317Z,92878.72
2022-11-16T11:29:29.116Z,92880.78
2022-11-16T11:32:05.594Z,92869.69
2022-11-16T11:34:39.423Z,92873.84
2022-11-16T11:37:07.951Z,92868.41
2022-11-16T11:39:36.038Z,92867.06
2022-11-16T11:42:02.812Z,92860.69
2022-11-16T11:44:38.819Z,92868.50
2022-11-16T11:50:55.854Z,92869.47
2022-11-16T11:53:46.996Z,92871.53
2022-11-16T11:56:14.551Z,92856.38
2022-11-16T11:58:42.273Z,92859.66
2022-11-16T12:01:33.644Z,92857.41
2022-11-16T12:04:31.129Z,92861.03
2022-11-16T12:07:13.116Z,92861.38
2022-11-16T12:09:54.782Z,92857.72
2022-11-16T12:12:24.164Z,92858.44
2022-11-16T12:15:21.749Z,92849.91
2022-11-16T12:17:54.191Z,92856.97
2022-11-16T12:20:33.985Z,92844.53
2022-11-16T12:23:22.415Z,92852.91
2022-11-16T12:26:24.554Z,92852.38
2022-11-16T12:29:09.528Z,92845.41
2022-11-16T12:31:58.983Z,92847.88
2022-11-16T12:34:44.330Z,92846.09
2022-11-16T12:37:18.293Z,92849.47
2022-11-16T12:40:12.071Z,92851.59
2022-11-16T12:42:53.671Z,92843.63
2022-11-16T12:45:46.649Z,92837.59
2022-11-16T12:48:29.862Z,92839.16
2022-11-16T12:51:07.112Z,92844.75
2022-11-16T12:53:55.773Z,92835.22
2022-11-16T12:56:48.965Z,92828.72
2022-11-16T12:59:57.523Z,92822.75
2022-11-16T13:02:55.209Z,92826.03
2022-11-16T13:05:44.088Z,92829.50
2022-11-16T13:08:26.010Z,92828.81
2022-11-16T13:10:57.881Z,92825.56
2022-11-16T13:13:38.838Z,92822.78
2022-11-16T13:16:06.875Z,92826.59
2022-11-16T13:18:36.105Z,92830.84
2022-11-16T13:21:27.074Z,92814.00
2022-11-16T13:24:30.991Z,92821.09
2022-11-16T13:27:28.731Z,92815.81
2022-11-16T13:30:05.171Z,92815.59
2022-11-16T13:32:37.939Z,92815.94
2022-11-16T13:35:06.023Z,92815.72
2022-11-16T13:37:52.334Z,92807.97
2022-11-16T13:40:32.131Z,92804.50
2022-11-16T13:43:02.757Z,92811.00
2022-11-16T13:45:36.671Z,92808.41
2022-11-16T13:48:14.952Z,92808.88
2022-11-16T13:50:51.582Z,92806.28
2022-11-16T13:56:16.451Z,92801.47
2022-11-16T13:58:48.923Z,92806.19
2022-11-16T14:01:16.974Z,92806.66
2022-11-16T14:03:45.592Z,92813.00
2022-11-16T14:06:24.673Z,92808.41
2022-11-16T14:08:55.786Z,92809.34
2022-11-16T14:11:33.321Z,92810.34
2022-11-16T14:14:10.345Z,92810.22
2022-11-16T14:16:46.146Z,92809.22
2022-11-16T14:19:47.595Z,92806.66
2022-11-16T14:22:44.661Z,92804.38
2022-11-16T14:25:14.202Z,92807.53
2022-11-16T14:28:07.083Z,92800.34
2022-11-16T14:30:54.361Z,92803.94
2022-11-16T14:33:30.169Z,92792.28
2022-11-16T14:35:57.075Z,92805.84
2022-11-16T14:38:29.229Z,92803.06
2022-11-16T14:40:59.728Z,92791.50
2022-11-16T14:43:41.889Z,92795.66
2022-11-16T14:46:26.216Z,92784.00
2022-11-16T14:48:55.379Z,92774.38
2022-11-16T14:51:26.095Z,92774.59
2022-11-16T14:53:57.995Z,92781.53
2022-11-16T14:56:24.750Z,92777.81
2022-11-16T14:58:59.952Z,92779.53
2022-11-16T15:01:28.940Z,92775.34
2022-11-16T15:04:05.370Z,92776.47
2022-11-16T15:06:45.960Z,92777.69
2022-11-16T15:09:35.465Z,92775.47
2022-11-16T15:12:22.883Z,92776.13
2022-11-16T15:14:53.820Z,92762.81
2022-11-16T15:17:22.624Z,92776.56
2022-11-16T15:19:56.124Z,92774.56
2022-11-16T15:22:24.550Z,92775.91
2022-11-16T15:24:56.450Z,92779.63
2022-11-16T15:27:41.281Z,92782.50
2022-11-16T15:30:20.074Z,92781.72
2022-11-16T15:32:48.392Z,92777.34
2022-11-16T15:35:32.870Z,92782.28
2022-11-16T15:38:02.621Z,92780.72
2022-11-16T15:40:30.441Z,92769.63
2022-11-16T15:42:59.862Z,92777.47
2022-11-16T15:45:27.555Z,92773.66
2022-11-16T15:47:55.009Z,92774.34
2022-11-16T15:50:26.171Z,92773.00
2022-11-16T15:52:56.108Z,92773.56
2022-11-16T15:55:24.246Z,92774.00
2022-11-16T15:58:30.364Z,92772.88
2022-11-16T16:00:59.308Z,92767.84
2022-11-16T16:03:31.856Z,92770.97
2022-11-16T16:05:59.103Z,92767.72
2022-11-16T16:08:32.624Z,92772.31
2022-11-16T16:11:01.514Z,92773.44
2022-11-16T16:13:37.135Z,92779.50
2022-11-16T16:16:37.523Z,92781.94
2022-11-16T16:19:25.941Z,92793.94
2022-11-16T16:21:53.006Z,92777.47
2022-11-16T16:24:46.512Z,92792.81
2022-11-16T16:27:24.697Z,92778.25
2022-11-16T16:29:53.381Z,92789.91
2022-11-16T16:32:30.161Z,92791.91
2022-11-16T16:34:59.455Z,92789.25
2022-11-16T16:37:29.031Z,92787.22
2022-11-16T16:39:55.803Z,92785.31
2022-11-16T16:42:22.604Z,92784.75
2022-11-16T16:44:50.142Z,92786.31
2022-11-16T16:47:20.760Z,92786.88
2022-11-16T16:49:48.514Z,92784.19
2022-11-16T16:52:15.834Z,92781.47
2022-11-16T16:54:42.681Z,92783.63
2022-11-16T16:57:14.143Z,92785.53
2022-11-16T16:59:41.265Z,92783.41
2022-11-16T17:02:11.405Z,92775.44
2022-11-16T17:04:38.191Z,92779.59
2022-11-16T17:07:05.497Z,92786.88
2022-11-16T17:09:32.394Z,92780.16
2022-11-16T17:11:59.112Z,92777.81
2022-11-16T17:14:25.732Z,92777.47
2022-11-16T17:16:52.631Z,92775.66
2022-11-16T17:19:20.179Z,92780.47
2022-11-16T17:21:46.942Z,92769.28
2022-11-16T17:24:13.644Z,92769.03
2022-11-16T17:26:40.978Z,92771.16
2022-11-16T17:29:07.770Z,92769.59
2022-11-16T17:31:34.476Z,92769.59
2022-11-16T17:34:01.375Z,92768.59
2022-11-16T17:36:28.125Z,92761.88
2022-11-16T17:38:54.759Z,92768.59
2022-11-16T17:41:25.736Z,92765.25
2022-11-16T17:44:00.821Z,92761.31
2022-11-16T17:46:36.510Z,92759.19
2022-11-16T17:49:09.651Z,92765.22
2022-11-16T17:51:42.588Z,92766.81
2022-11-16T17:54:11.376Z,92764.66
2022-11-16T17:56:43.326Z,92771.63
2022-11-16T17:59:11.101Z,92771.16
2022-11-16T18:01:42.140Z,92776.75
2022-11-16T18:04:09.657Z,92764.78
2022-11-16T18:06:36.513Z,92763.56
2022-11-16T18:09:03.153Z,92768.28
2022-11-16T18:11:29.951Z,92760.22
2022-11-16T18:14:00.613Z,92775.66
2022-11-16T18:16:30.123Z,92766.47
2022-11-16T18:18:58.764Z,92772.75
2022-11-16T18:21:25.917Z,92762.00
2022-11-16T18:23:53.008Z,92765.50
2022-11-16T18:26:21.286Z,92767.28
2022-11-16T18:28:49.039Z,92764.25
2022-11-16T18:31:19.212Z,92767.41
2022-11-16T18:33:46.292Z,92765.84
2022-11-16T18:36:13.342Z,92761.13
2022-11-16T18:38:40.064Z,92751.25
2022-11-16T18:41:13.592Z,92748.56
2022-11-16T18:43:52.143Z,92734.22
2022-11-16T18:46:20.790Z,92735.03
2022-11-16T18:48:47.645Z,92737.81
2022-11-16T18:51:15.013Z,92742.72
2022-11-16T18:53:42.073Z,92740.50
2022-11-16T18:56:30.792Z,92741.97
2022-11-16T18:59:12.026Z,92748.56
2022-11-16T19:02:16.194Z,92743.19
2022-11-16T19:04:52.519Z,92741.84
2022-11-16T19:07:30.017Z,92733.44
2022-11-16T19:10:08.544Z,92735.13
2022-11-16T19:12:45.279Z,92732.19
2022-11-16T19:15:16.296Z,92720.56
2022-11-16T19:18:28.979Z,92720.66
2022-11-16T19:21:24.963Z,92722.44
2022-11-16T19:23:53.355Z,92717.88
2022-11-16T19:26:21.368Z,92716.41
2022-11-16T19:28:49.344Z,92720.78
2022-11-16T19:31:21.884Z,92725.94
2022-11-16T19:33:48.792Z,92721.56
2022-11-16T19:36:17.424Z,92716.97
2022-11-16T19:38:45.429Z,92715.19
2022-11-16T19:41:13.504Z,92705.13
2022-11-16T19:43:40.698Z,92716.53
2022-11-16T19:46:10.045Z,92712.84
2022-11-16T19:48:37.525Z,92722.59
2022-11-16T19:51:05.416Z,92719.56
2022-11-16T19:53:32.937Z,92719.31
2022-11-16T19:55:59.830Z,92717.66
2022-11-16T19:58:26.593Z,92707.56
2022-11-16T20:00:53.342Z,92716.66
2022-11-16T20:03:20.060Z,92719.00
2022-11-16T20:05:46.718Z,92723.81
2022-11-16T20:08:13.377Z,92722.69
2022-11-16T20:10:39.944Z,92722.47
2022-11-16T20:13:06.657Z,92720.44
2022-11-16T20:15:33.340Z,92718.44
2022-11-16T20:17:59.912Z,92718.88
2022-11-16T20:20:26.697Z,92724.38
2022-11-16T20:22:53.801Z,92722.59
2022-11-16T20:25:20.457Z,92713.84
2022-11-16T20:27:47.221Z,92712.06
2022-11-16T20:30:14.089Z,92715.41
2022-11-16T20:32:40.731Z,92705.69
2022-11-16T20:35:07.539Z,92696.81
2022-11-16T20:37:40.602Z,92690.22
2022-11-16T20:40:09.148Z,92694.25
2022-11-16T20:42:35.812Z,92685.41
2022-11-16T20:45:02.701Z,92693.34
2022-11-16T20:47:29.296Z,92694.56
2022-11-16T20:49:56.195Z,92689.19
2022-11-16T20:52:24.141Z,92698.28
2022-11-16T20:54:53.921Z,92693.13
2022-11-16T20:57:20.537Z,92691.44
2022-11-16T20:59:52.349Z,92691.34
2022-11-16T21:02:19.038Z,92689.56
2022-11-16T21:04:56.071Z,92664.13
2022-11-16T21:07:27.422Z,92671.50
2022-11-16T21:10:12.567Z,92667.91
2022-11-16T21:12:58.530Z,92655.50
2022-11-16T21:15:25.102Z,92685.94
2022-11-16T21:18:08.249Z,92673.81
2022-11-16T21:20:34.936Z,92677.88
2022-11-16T21:23:02.604Z,92686.38
2022-11-16T21:25:36.599Z,92678.72
2022-11-16T21:28:08.879Z,92683.38
2022-11-16T21:30:42.026Z,92685.59
2022-11-16T21:33:12.603Z,92694.81
2022-11-16T21:35:39.679Z,92694.97
2022-11-16T21:38:06.265Z,92686.44
2022-11-16T21:40:33.763Z,92681.59
2022-11-16T21:43:10.140Z,92689.22
2022-11-16T21:45:36.939Z,92677.78
2022-11-16T21:48:12.455Z,92686.44
2022-11-16T21:50:41.922Z,92691.50
2022-11-16T21:53:09.180Z,92700.56
2022-11-16T21:55:37.688Z,92702.91
2022-11-16T21:58:12.008Z,92688.03
2022-11-16T22:00:39.339Z,92683.13
2022-11-16T22:03:09.317Z,92694.59
2022-11-16T22:05:57.471Z,92692.09
2022-11-16T22:08:24.269Z,92692.44
2022-11-16T22:10:52.279Z,92689.09
2022-11-16T22:13:19.482Z,92692.25
2022-11-16T22:15:46.238Z,92698.63
2022-11-16T22:18:13.459Z,92702.75
2022-11-16T22:20:40.350Z,92678.47
2022-11-16T22:23:06.964Z,92690.38
2022-11-16T22:25:33.825Z,92685.09
2022-11-16T22:30:51.387Z,92695.75
2022-11-16T22:33:18.743Z,92702.03
2022-11-16T22:35:46.954Z,92700.56
2022-11-16T22:38:13.541Z,92701.47
2022-11-16T22:40:40.142Z,92701.03
2022-11-16T22:43:06.721Z,92707.75
2022-11-16T22:45:33.293Z,92704.59
2022-11-16T22:47:59.997Z,92701.34
2022-11-16T22:50:26.718Z,92692.63
2022-11-16T22:52:53.353Z,92678.47
2022-11-16T22:55:19.950Z,92686.88
2022-11-16T22:57:46.513Z,92692.25
2022-11-16T23:00:13.847Z,92698.97
2022-11-16T23:02:40.479Z,92687.97
2022-11-16T23:05:07.475Z,92694.25
2022-11-16T23:07:34.083Z,92701.88
2022-11-16T23:10:00.780Z,92684.00
2022-11-16T23:12:45.966Z,92705.00
2022-11-16T23:15:31.859Z,92698.34
2022-11-16T23:17:58.563Z,92709.22
2022-11-16T23:20:43.684Z,92711.00
2022-11-16T23:23:38.500Z,92704.06
2022-11-16T23:26:27.570Z,92707.97
2022-11-16T23:28:54.645Z,92709.00
2022-11-16T23:31:21.196Z,92708.00
2022-11-16T23:33:47.931Z,92703.66
2022-11-16T23:36:14.836Z,92693.69
2022-11-16T23:38:41.439Z,92684.81
2022-11-16T23:41:26.843Z,92672.84
2022-11-16T23:43:59.584Z,92672.56
2022-11-16T23:46:30.783Z,92670.72
2022-11-16T23:48:58.122Z,92682.56
2022-11-16T23:51:25.133Z,92684.56
2022-11-16T23:53:52.718Z,92679.09
2022-11-16T23:56:20.330Z,92671.66
2022-11-16T23:58:47.293Z,92673.72
